createdAt,value
2017-10-10T00:02:18.450Z,101249
2017-10-10T00:04:46.701Z,101250
2017-10-10T00:07:15.008Z,101249
2017-10-10T00:09:43.289Z,101252
2017-10-10T00:12:11.513Z,101250
2017-10-10T00:14:40.551Z,101236
2017-10-10T00:17:08.762Z,101249
2017-10-10T00:19:37.003Z,101244
2017-10-10T00:22:05.190Z,101248
2017-10-10T00:24:33.425Z,101249
2017-10-10T00:27:01.661Z,101244
2017-10-10T00:29:29.908Z,101245
2017-10-10T00:31:58.103Z,101246
2017-10-10T00:34:26.307Z,101246
2017-10-10T00:36:55.294Z,101246
2017-10-10T00:39:23.575Z,101235
2017-10-10T00:41:52.576Z,101228
2017-10-10T00:44:20.794Z,101227
2017-10-10T00:46:49.042Z,101227
2017-10-10T00:49:17.243Z,101224
2017-10-10T00:51:45.506Z,101226
2017-10-10T00:54:13.735Z,101220
2017-10-10T00:56:41.940Z,101223
2017-10-10T00:59:10.159Z,101219
2017-10-10T01:01:38.359Z,101223
2017-10-10T01:04:07.361Z,101210
2017-10-10T01:06:35.605Z,101213
2017-10-10T01:09:03.787Z,101210
2017-10-10T01:11:32.028Z,101213
2017-10-10T01:14:00.252Z,101209
2017-10-10T01:16:28.464Z,101205
2017-10-10T01:18:56.727Z,101201
2017-10-10T01:21:24.950Z,101198
2017-10-10T01:23:53.171Z,101196
2017-10-10T01:26:21.345Z,101191
2017-10-10T01:28:49.580Z,101194
2017-10-10T01:31:17.896Z,101186
2017-10-10T01:33:46.095Z,101187
2017-10-10T01:36:14.297Z,101180
2017-10-10T01:38:42.507Z,101179
2017-10-10T01:41:10.726Z,101176
2017-10-10T01:43:39.003Z,101179
2017-10-10T01:48:41.699Z,101173
2017-10-10T01:51:09.927Z,101169
2017-10-10T01:53:38.222Z,101161
2017-10-10T01:56:06.483Z,101158
2017-10-10T01:58:34.682Z,101154
2017-10-10T02:01:02.935Z,101151
2017-10-10T02:03:31.165Z,101153
2017-10-10T02:05:59.392Z,101146
2017-10-10T02:08:27.603Z,101152
2017-10-10T02:10:55.832Z,101139
2017-10-10T02:13:24.053Z,101139
2017-10-10T02:15:52.283Z,101130
2017-10-10T02:18:20.508Z,101135
2017-10-10T02:20:48.918Z,101133
2017-10-10T02:23:17.257Z,101125
2017-10-10T02:25:45.590Z,101127
2017-10-10T02:28:13.847Z,101122
2017-10-10T02:30:42.085Z,101126
2017-10-10T02:33:10.317Z,101116
2017-10-10T02:35:38.543Z,101122
2017-10-10T02:38:07.525Z,101116
2017-10-10T02:40:35.720Z,101117
2017-10-10T02:43:04.685Z,101116
2017-10-10T02:45:32.885Z,101119
2017-10-10T02:48:01.894Z,101109
2017-10-10T02:50:30.139Z,101113
2017-10-10T02:52:59.129Z,101109
2017-10-10T02:55:27.348Z,101103
2017-10-10T02:57:55.720Z,101112
2017-10-10T03:00:23.956Z,101110
2017-10-10T03:02:52.279Z,101117
2017-10-10T03:05:20.524Z,101112
2017-10-10T03:07:48.719Z,101110
2017-10-10T03:10:16.929Z,101104
2017-10-10T03:12:46.117Z,101094
2017-10-10T03:15:14.295Z,101088
2017-10-10T03:17:42.504Z,101096
2017-10-10T03:20:11.506Z,101095
2017-10-10T03:22:40.539Z,101099
2017-10-10T03:25:08.750Z,101089
2017-10-10T03:27:38.590Z,101089
2017-10-10T03:30:07.573Z,101095
2017-10-10T03:32:36.571Z,101085
2017-10-10T03:35:04.807Z,101087
2017-10-10T03:37:33.023Z,101090
2017-10-10T03:40:01.348Z,101093
2017-10-10T03:42:29.647Z,101079
2017-10-10T03:44:57.875Z,101078
2017-10-10T03:47:26.121Z,101076
2017-10-10T03:49:54.326Z,101072
2017-10-10T03:52:22.603Z,101070
2017-10-10T03:54:51.008Z,101067
2017-10-10T03:57:19.220Z,101072
2017-10-10T03:59:47.455Z,101072
2017-10-10T04:02:15.736Z,101069
2017-10-10T04:04:44.024Z,101069
2017-10-10T04:07:13.005Z,101064
2017-10-10T04:09:41.255Z,101058
2017-10-10T04:12:09.508Z,101061
2017-10-10T04:14:37.811Z,101053
2017-10-10T04:17:06.029Z,101053
2017-10-10T04:19:34.232Z,101047
2017-10-10T04:22:02.461Z,101043
2017-10-10T04:24:30.732Z,101042
2017-10-10T04:26:59.378Z,101044
2017-10-10T04:29:27.643Z,101049
2017-10-10T04:31:55.856Z,101045
2017-10-10T04:34:24.170Z,101041
2017-10-10T04:36:52.390Z,101049
2017-10-10T04:39:21.621Z,101051
2017-10-10T04:41:50.620Z,101053
2017-10-10T04:44:18.835Z,101049
2017-10-10T04:46:47.079Z,101051
2017-10-10T04:49:15.300Z,101052
2017-10-10T04:51:43.610Z,101056
2017-10-10T04:54:11.856Z,101045
2017-10-10T04:56:40.289Z,101057
2017-10-10T04:59:08.518Z,101048
2017-10-10T05:01:36.757Z,101047
2017-10-10T05:04:04.992Z,101049
2017-10-10T05:06:33.954Z,101055
2017-10-10T05:09:02.157Z,101047
2017-10-10T05:11:31.111Z,101057
2017-10-10T05:13:59.351Z,101056
2017-10-10T05:16:27.570Z,101057
2017-10-10T05:18:55.791Z,101049
2017-10-10T05:21:24.031Z,101045
2017-10-10T05:23:52.245Z,101053
2017-10-10T05:26:20.525Z,101046
2017-10-10T05:28:48.742Z,101049
2017-10-10T05:31:17.451Z,101039
2017-10-10T05:33:45.660Z,101045
2017-10-10T05:36:13.988Z,101051
2017-10-10T05:38:44.039Z,101042
2017-10-10T05:41:13.003Z,101036
2017-10-10T05:43:41.262Z,101050
2017-10-10T05:46:10.361Z,101039
2017-10-10T05:48:38.595Z,101038
2017-10-10T05:51:06.854Z,101043
2017-10-10T05:53:35.189Z,101040
2017-10-10T05:56:04.269Z,101039
2017-10-10T05:58:33.427Z,101039
2017-10-10T06:01:01.767Z,101039
2017-10-10T06:03:30.086Z,101040
2017-10-10T06:05:58.401Z,101041
2017-10-10T06:08:26.652Z,101039
2017-10-10T06:10:54.926Z,101040
2017-10-10T06:13:23.152Z,101049
2017-10-10T06:15:52.183Z,101041
2017-10-10T06:18:20.409Z,101043
2017-10-10T06:20:48.626Z,101044
2017-10-10T06:23:16.970Z,101039
2017-10-10T06:25:45.947Z,101047
2017-10-10T06:28:14.248Z,101041
2017-10-10T06:30:43.256Z,101049
2017-10-10T06:33:11.526Z,101046
2017-10-10T06:35:39.824Z,101045
2017-10-10T06:38:08.071Z,101039
2017-10-10T06:40:36.306Z,101043
2017-10-10T06:43:04.517Z,101043
2017-10-10T06:45:32.863Z,101042
2017-10-10T06:48:01.094Z,101044
2017-10-10T06:50:29.366Z,101045
2017-10-10T06:52:57.661Z,101051
2017-10-10T06:55:25.899Z,101049
2017-10-10T06:57:54.167Z,101060
2017-10-10T07:00:23.176Z,101049
2017-10-10T07:02:51.418Z,101050
2017-10-10T07:05:19.766Z,101052
2017-10-10T07:07:48.035Z,101050
2017-10-10T07:10:16.257Z,101049
2017-10-10T07:12:45.263Z,101048
2017-10-10T07:15:13.507Z,101061
2017-10-10T07:17:41.748Z,101060
2017-10-10T07:20:09.958Z,101058
2017-10-10T07:22:38.967Z,101060
2017-10-10T07:25:07.256Z,101072
2017-10-10T07:27:35.532Z,101066
2017-10-10T07:30:03.774Z,101066
2017-10-10T07:32:32.825Z,101077
2017-10-10T07:35:01.042Z,101082
2017-10-10T07:37:30.072Z,101068
2017-10-10T07:39:58.343Z,101078
2017-10-10T07:42:26.601Z,101070
2017-10-10T07:44:55.176Z,101078
2017-10-10T07:47:24.170Z,101078
2017-10-10T07:49:52.503Z,101074
2017-10-10T07:52:20.728Z,101068
2017-10-10T07:54:49.260Z,101065
2017-10-10T07:57:17.556Z,101080
2017-10-10T07:59:45.807Z,101067
2017-10-10T08:02:14.136Z,101068
2017-10-10T08:04:42.481Z,101066
2017-10-10T08:07:10.783Z,101066
2017-10-10T08:09:39.899Z,101059
2017-10-10T08:12:08.216Z,101060
2017-10-10T08:14:36.438Z,101066
2017-10-10T08:17:04.670Z,101055
2017-10-10T08:19:32.946Z,101056
2017-10-10T08:22:01.258Z,101060
2017-10-10T08:24:30.260Z,101054
2017-10-10T08:26:58.498Z,101055
2017-10-10T08:29:26.749Z,101065
2017-10-10T08:31:54.979Z,101060
2017-10-10T08:34:23.212Z,101067
2017-10-10T08:36:51.604Z,101067
2017-10-10T08:39:19.854Z,101069
2017-10-10T08:41:48.068Z,101072
2017-10-10T08:44:17.079Z,101071
2017-10-10T08:46:45.865Z,101068
2017-10-10T08:49:14.108Z,101070
2017-10-10T08:51:42.345Z,101073
2017-10-10T08:54:10.549Z,101071
2017-10-10T08:56:38.908Z,101072
2017-10-10T08:59:07.174Z,101068
2017-10-10T09:01:35.390Z,101068
2017-10-10T09:04:06.364Z,101067
2017-10-10T09:06:34.721Z,101067
2017-10-10T09:09:03.693Z,101066
2017-10-10T09:11:32.851Z,101071
2017-10-10T09:14:03.970Z,101065
2017-10-10T09:16:46.027Z,101067
2017-10-10T09:19:15.252Z,101074
2017-10-10T09:21:44.066Z,101074
2017-10-10T09:24:18.934Z,101065
2017-10-10T09:26:50.863Z,101077
2017-10-10T09:29:19.103Z,101065
2017-10-10T09:31:48.237Z,101068
2017-10-10T09:36:56.666Z,101063
2017-10-10T09:39:25.192Z,101053
2017-10-10T09:41:53.515Z,101072
2017-10-10T09:44:22.514Z,101066
2017-10-10T09:46:51.375Z,101063
2017-10-10T09:49:19.607Z,101067
2017-10-10T09:51:51.260Z,101071
2017-10-10T09:54:19.496Z,101068
2017-10-10T09:56:48.977Z,101067
2017-10-10T09:59:17.241Z,101072
2017-10-10T10:01:47.574Z,101066
2017-10-10T10:04:16.625Z,101070
2017-10-10T10:06:45.155Z,101075
2017-10-10T10:09:13.388Z,101071
2017-10-10T10:11:42.494Z,101071
2017-10-10T10:14:10.764Z,101069
2017-10-10T10:16:39.090Z,101079
2017-10-10T10:19:07.646Z,101080
2017-10-10T10:21:35.964Z,101076
2017-10-10T10:24:04.247Z,101078
2017-10-10T10:26:33.244Z,101071
2017-10-10T10:29:01.989Z,101069
2017-10-10T10:31:30.272Z,101072
2017-10-10T10:33:58.512Z,101074
2017-10-10T10:36:32.535Z,101069
2017-10-10T10:39:00.833Z,101070
2017-10-10T10:41:29.266Z,101058
2017-10-10T10:44:01.155Z,101073
2017-10-10T10:46:29.408Z,101067
2017-10-10T10:48:59.440Z,101065
2017-10-10T10:51:27.724Z,101057
2017-10-10T10:53:55.981Z,101055
2017-10-10T10:56:25.011Z,101046
2017-10-10T10:58:53.246Z,101057
2017-10-10T11:01:22.276Z,101053
2017-10-10T11:03:50.613Z,101045
2017-10-10T11:06:18.827Z,101042
2017-10-10T11:08:47.921Z,101043
2017-10-10T11:11:17.075Z,101043
2017-10-10T11:13:48.212Z,101038
2017-10-10T11:16:16.645Z,101042
2017-10-10T11:18:47.899Z,101041
2017-10-10T11:21:17.023Z,101036
2017-10-10T11:23:45.273Z,101043
2017-10-10T11:26:13.565Z,101041
2017-10-10T11:28:41.874Z,101031
2017-10-10T11:31:10.936Z,101036
2017-10-10T11:33:39.179Z,101032
2017-10-10T11:36:11.751Z,101033
2017-10-10T11:38:39.953Z,101031
2017-10-10T11:41:08.268Z,101032
2017-10-10T11:43:36.482Z,101033
2017-10-10T11:46:05.409Z,101046
2017-10-10T11:48:33.655Z,101042
2017-10-10T11:51:01.855Z,101034
2017-10-10T11:53:31.221Z,101047
2017-10-10T11:55:59.527Z,101041
2017-10-10T11:58:27.731Z,101035
2017-10-10T12:00:55.981Z,101035
2017-10-10T12:03:24.201Z,101034
2017-10-10T12:05:52.400Z,101038
2017-10-10T12:08:20.693Z,101035
2017-10-10T12:10:48.951Z,101031
2017-10-10T12:13:17.267Z,101034
2017-10-10T12:15:45.522Z,101047
2017-10-10T12:18:13.739Z,101038
2017-10-10T12:20:42.020Z,101038
2017-10-10T12:23:10.247Z,101045
2017-10-10T12:25:38.518Z,101037
2017-10-10T12:28:06.755Z,101047
2017-10-10T12:30:35.165Z,101035
2017-10-10T12:33:03.565Z,101037
2017-10-10T12:35:31.903Z,101035
2017-10-10T12:38:01.324Z,101025
2017-10-10T12:40:29.820Z,101018
2017-10-10T12:42:58.049Z,101022
2017-10-10T12:45:26.380Z,101016
2017-10-10T12:47:56.125Z,101019
2017-10-10T12:50:24.358Z,101019
2017-10-10T12:52:53.431Z,101026
2017-10-10T12:55:24.417Z,101021
2017-10-10T12:57:52.682Z,101015
2017-10-10T13:00:21.759Z,101026
2017-10-10T13:02:50.832Z,101021
2017-10-10T13:05:19.157Z,101014
2017-10-10T13:07:47.389Z,101014
2017-10-10T13:10:15.631Z,101013
2017-10-10T13:12:43.856Z,101011
2017-10-10T13:15:13.110Z,101010
2017-10-10T13:17:41.356Z,101011
2017-10-10T13:20:09.555Z,101008
2017-10-10T13:22:37.820Z,101008
2017-10-10T13:25:06.056Z,101008
2017-10-10T13:27:35.053Z,101006
2017-10-10T13:30:04.142Z,101002
2017-10-10T13:32:34.171Z,101008
2017-10-10T13:35:02.435Z,101006
2017-10-10T13:37:31.464Z,100997
2017-10-10T13:39:59.817Z,100998
2017-10-10T13:42:28.856Z,101010
2017-10-10T13:44:57.093Z,101006
2017-10-10T13:47:25.327Z,101007
2017-10-10T13:49:53.603Z,101007
2017-10-10T13:52:21.898Z,101003
2017-10-10T13:54:50.939Z,101010
2017-10-10T13:57:19.247Z,101010
2017-10-10T13:59:47.604Z,100998
2017-10-10T14:02:15.837Z,101008
2017-10-10T14:04:44.157Z,101010
2017-10-10T14:07:13.334Z,101003
2017-10-10T14:09:41.575Z,101007
2017-10-10T14:12:10.815Z,101006
2017-10-10T14:14:39.536Z,100999
2017-10-10T14:17:07.772Z,100993
2017-10-10T14:19:36.018Z,101012
2017-10-10T14:22:04.493Z,100998
2017-10-10T14:24:33.703Z,101010
2017-10-10T14:27:02.102Z,100998
2017-10-10T14:29:30.512Z,100999
2017-10-10T14:32:02.792Z,100995
2017-10-10T14:34:31.768Z,100993
2017-10-10T14:37:00.023Z,100998
2017-10-10T14:39:28.310Z,100994
2017-10-10T14:41:58.415Z,100995
2017-10-10T14:44:28.508Z,100993
2017-10-10T14:46:57.429Z,101000
2017-10-10T14:49:26.708Z,101001
2017-10-10T14:51:55.480Z,100997
2017-10-10T14:54:23.706Z,100991
2017-10-10T14:56:52.379Z,100991
2017-10-10T14:59:21.582Z,100998
2017-10-10T15:01:50.700Z,100993
2017-10-10T15:04:18.922Z,100978
2017-10-10T15:06:47.188Z,100988
2017-10-10T15:09:15.902Z,100982
2017-10-10T15:11:44.116Z,100978
2017-10-10T15:14:16.051Z,100985
2017-10-10T15:16:44.316Z,100976
2017-10-10T15:19:12.570Z,100978
2017-10-10T15:21:40.884Z,100974
2017-10-10T15:24:09.180Z,100983
2017-10-10T15:26:37.489Z,100981
2017-10-10T15:29:06.491Z,100981
2017-10-10T15:31:34.776Z,100996
2017-10-10T15:34:03.104Z,100986
2017-10-10T15:36:31.422Z,100986
2017-10-10T15:38:59.684Z,100987
2017-10-10T15:41:28.035Z,100990
2017-10-10T15:43:57.105Z,100990
2017-10-10T15:46:25.355Z,100989
2017-10-10T15:48:53.709Z,101000
2017-10-10T15:51:22.030Z,100988
2017-10-10T15:53:50.268Z,100985
2017-10-10T15:56:19.406Z,100985
2017-10-10T15:58:47.681Z,100986
2017-10-10T16:01:16.872Z,100990
2017-10-10T16:03:45.189Z,100986
2017-10-10T16:06:13.493Z,100993
2017-10-10T16:08:41.801Z,100998
2017-10-10T16:11:10.080Z,100997
2017-10-10T16:13:39.895Z,101000
2017-10-10T16:16:08.234Z,100988
2017-10-10T16:18:37.510Z,100986
2017-10-10T16:21:05.728Z,100998
2017-10-10T16:23:36.860Z,100995
2017-10-10T16:26:05.119Z,100983
2017-10-10T16:28:33.363Z,100995
2017-10-10T16:31:04.419Z,100985
2017-10-10T16:33:32.700Z,100991
2017-10-10T16:36:01.057Z,100992
2017-10-10T16:38:29.306Z,100990
2017-10-10T16:40:57.539Z,100999
2017-10-10T16:43:25.839Z,100994
2017-10-10T16:45:54.124Z,100999
2017-10-10T16:48:22.397Z,101002
2017-10-10T16:50:50.740Z,101003
2017-10-10T16:53:19.067Z,101002
2017-10-10T16:55:48.112Z,100999
2017-10-10T16:58:16.442Z,101012
2017-10-10T17:00:50.807Z,101005
2017-10-10T17:03:19.138Z,101004
2017-10-10T17:05:52.052Z,101004
2017-10-10T17:08:22.386Z,101005
2017-10-10T17:10:52.166Z,101006
2017-10-10T17:13:34.962Z,101011
2017-10-10T17:16:03.439Z,101006
2017-10-10T17:18:32.470Z,101008
2017-10-10T17:21:05.648Z,101012
2017-10-10T17:23:34.103Z,101015
2017-10-10T17:26:03.176Z,101013
2017-10-10T17:28:35.871Z,101005
2017-10-10T17:31:04.346Z,101021
2017-10-10T17:36:42.879Z,101023
2017-10-10T17:39:12.604Z,101015
2017-10-10T17:41:40.864Z,101013
2017-10-10T17:44:10.326Z,101018
2017-10-10T17:46:38.752Z,101022
2017-10-10T17:49:07.122Z,101013
2017-10-10T17:51:35.411Z,101021
2017-10-10T17:54:03.710Z,101019
2017-10-10T17:56:31.924Z,101026
2017-10-10T17:59:00.127Z,101019
2017-10-10T18:01:28.382Z,101019
2017-10-10T18:03:56.691Z,101023
2017-10-10T18:06:24.938Z,101021
2017-10-10T18:08:53.187Z,101022
2017-10-10T18:11:21.405Z,101016
2017-10-10T18:13:49.685Z,101023
2017-10-10T18:16:18.695Z,101018
2017-10-10T18:18:46.932Z,101023
2017-10-10T18:21:15.277Z,101022
2017-10-10T18:23:43.544Z,101027
2017-10-10T18:26:11.780Z,101029
2017-10-10T18:28:40.034Z,101025
2017-10-10T18:31:08.338Z,101026
2017-10-10T18:33:37.412Z,101026
2017-10-10T18:36:15.299Z,101028
2017-10-10T18:52:26.254Z,101032
2017-10-10T18:54:54.785Z,101038
2017-10-10T18:57:23.033Z,101030
2017-10-10T18:59:51.321Z,101039
2017-10-10T19:02:20.614Z,101040
2017-10-10T19:04:49.799Z,101042
2017-10-10T19:07:18.919Z,101044
2017-10-10T19:09:48.825Z,101048
2017-10-10T19:12:17.842Z,101040
2017-10-10T19:14:46.101Z,101035
2017-10-10T19:17:14.352Z,101034
2017-10-10T19:19:43.346Z,101033
2017-10-10T19:22:11.592Z,101033
2017-10-10T19:24:43.280Z,101034
2017-10-10T19:27:12.304Z,101030
2017-10-10T19:29:41.544Z,101033
2017-10-10T19:32:09.868Z,101029
2017-10-10T19:34:38.187Z,101030
2017-10-10T19:37:06.441Z,101030
2017-10-10T19:39:39.529Z,101034
2017-10-10T19:42:08.599Z,101036
2017-10-10T19:44:39.306Z,101043
2017-10-10T19:47:08.646Z,101038
2017-10-10T19:49:36.859Z,101044
2017-10-10T19:52:05.231Z,101039
2017-10-10T19:54:33.524Z,101047
2017-10-10T19:57:01.845Z,101059
2017-10-10T19:59:30.113Z,101058
2017-10-10T20:01:58.403Z,101061
2017-10-10T20:04:26.677Z,101059
2017-10-10T20:06:54.942Z,101062
2017-10-10T20:09:23.339Z,101069
2017-10-10T20:11:51.604Z,101064
2017-10-10T20:14:20.135Z,101068
2017-10-10T20:16:48.476Z,101076
2017-10-10T20:19:20.989Z,101074
2017-10-10T20:21:49.521Z,101081
2017-10-10T20:24:18.870Z,101088
2017-10-10T20:26:47.142Z,101089
2017-10-10T20:29:16.917Z,101095
2017-10-10T20:31:45.296Z,101099
2017-10-10T20:44:36.007Z,101112
2017-10-10T20:47:09.062Z,101122
2017-10-10T20:49:38.341Z,101103
2017-10-10T20:52:07.123Z,101101
2017-10-10T20:54:35.523Z,101115
2017-10-10T20:57:04.166Z,101115
2017-10-10T20:59:38.356Z,101107
2017-10-10T21:02:06.805Z,101109
2017-10-10T21:04:37.054Z,101113
2017-10-10T21:07:05.402Z,101108
2017-10-10T21:09:33.724Z,101109
2017-10-10T21:12:02.962Z,101107
2017-10-10T21:14:31.357Z,101112
2017-10-10T21:16:59.778Z,101116
2017-10-10T21:19:29.079Z,101104
2017-10-10T21:22:06.549Z,101107
2017-10-10T21:24:36.073Z,101113
2017-10-10T21:27:05.509Z,101110
2017-10-10T21:29:35.548Z,101113
2017-10-10T21:32:03.878Z,101113
2017-10-10T21:34:32.305Z,101108
2017-10-10T21:37:01.505Z,101114
2017-10-10T21:39:35.983Z,101104
2017-10-10T21:42:09.264Z,101107
2017-10-10T21:44:39.343Z,101112
2017-10-10T21:47:08.528Z,101105
2017-10-10T21:52:12.012Z,101106
2017-10-10T21:54:42.589Z,101108
2017-10-10T21:57:11.518Z,101096
2017-10-10T21:59:40.511Z,101096
2017-10-10T22:02:08.898Z,101096
2017-10-10T22:04:37.365Z,101095
2017-10-10T22:07:06.583Z,101090
2017-10-10T22:09:36.001Z,101091
2017-10-10T22:12:05.387Z,101092
2017-10-10T22:14:34.818Z,101090
2017-10-10T22:17:06.778Z,101086
2017-10-10T22:19:35.171Z,101086
2017-10-10T22:22:03.566Z,101083
2017-10-10T22:24:35.888Z,101083
2017-10-10T22:27:04.525Z,101084
2017-10-10T22:29:35.005Z,101080
2017-10-10T22:32:03.418Z,101085
2017-10-10T22:34:31.743Z,101086
2017-10-10T22:37:00.822Z,101089
2017-10-10T22:39:29.205Z,101077
2017-10-10T22:42:05.773Z,101075
2017-10-10T22:44:34.170Z,101081
2017-10-10T22:47:04.270Z,101085
2017-10-10T22:49:38.798Z,101089
2017-10-10T22:52:08.580Z,101085
2017-10-10T22:54:37.119Z,101082
2017-10-10T22:57:12.374Z,101078
2017-10-10T22:59:40.837Z,101083
2017-10-10T23:02:09.323Z,101080
2017-10-10T23:04:44.099Z,101079
2017-10-10T23:07:21.365Z,101078
2017-10-10T23:09:51.656Z,101077
2017-10-10T23:14:55.171Z,101069
2017-10-10T23:17:23.708Z,101071
2017-10-10T23:22:38.897Z,101071
2017-10-10T23:27:49.803Z,101077
2017-10-10T23:30:22.127Z,101082
2017-10-10T23:32:50.621Z,101080
2017-10-10T23:35:19.763Z,101076
2017-10-10T23:37:48.165Z,101080
2017-10-10T23:40:16.533Z,101074
2017-10-10T23:42:45.822Z,101073
2017-10-10T23:45:14.067Z,101066
2017-10-10T23:47:42.323Z,101076
2017-10-10T23:50:11.354Z,101075
2017-10-10T23:52:39.640Z,101064
2017-10-10T23:55:07.968Z,101070
2017-10-10T23:57:36.263Z,101071
